MET: Información y Pronóstico Aeronáutico

///////////////////////////////////////////////////////////////////////////////////////////////////////////////////////////////////////////////////////////////////////////////////////////////////////////////////////////////////////////////

Member for

11 meses 1 semana
Enviado por meteorologia el Jue, 23/11/2017 - 11:39
18-6

18 DE JUNIO 2019

INFORMACION METEOROLOGICA AERONAUTICA (METAR) 18:00 UTC

 

Aeropuerto AEROPARQUE J. NEWBERY

18 - 18:00 METAR SABE 181800Z 31014KT 9999 OVC019 11/08 Q1009 NOSIG =

Aeropuerto BAHIA BLANCA

18 - 18:00 METAR SAZB 181800Z 27012KT 2500 -DZ BR OVC003 10/10 Q0997 =

Aeropuerto BARILOCHE

18 - 18:00 METAR SAZS 181800Z 29023KT 9999 SCT035 SCT200 08/02 Q1018 =

Aeropuerto CATAMARCA

18 - 18:00 METAR SANC 181800Z 05004KT CAVOK 17/M03 Q1016 =

Aeropuerto CHAPELCO

18 - 18:00 METAR SAZY 181800Z 25018KT 9999 VCSH FEW025 FEW038 FEW100 07/01 Q1019 =

Aeropuerto COMODORO RIVADAVIA

18 - 18:00 METAR SAVC 181800Z 27005KT 260V330 CAVOK 13/06 Q1012 =

Aeropuerto CORDOBA

18 - 18:00 METAR SACO 181800Z 05005KT 010V150 CAVOK 17/M01 Q1016 NOSIG =

Aeropuerto CORRIENTES

18 - 18:00 METAR SARC 181800Z 23007KT 9999 BKN012 OVC100 15/11 Q1016 =

Aeropuerto EL CALAFATE

18 - 18:00 METAR SAWC 181800Z 29007KT 9999 FEW040 BKN100 BKN200 06/M14 Q1010 =

Aeropuerto EL PALOMAR

18 - 18:00 METAR SADP 181800Z 30013KT 9999 OVC019 11/08 Q1019 =

Aeropuerto ESQUEL

18 - 18:00 METAR SAVE 181800Z 25018G31KT 200V320 9999 FEW035 SCT060 BKN070 08/01 Q1016 =

Aeropuerto EZEIZA

18 - 18:00 METAR SAEZ 181800Z 33015KT 9999 BKN018 OVC023 11/09 Q1008 NOSIG =

Aeropuerto FORMOSA

18 - 18:00 METAR SARF 181800Z 23007KT 9999 BKN006 OVC013 16/15 Q1016 =

Aeropuerto IGUAZU/CATARATAS

18 - 18:00 METAR SARI 181800Z 36008KT CAVOK 28/15 Q1016 =

Aeropuerto JUJUY

18 - 18:00 METAR SASJ 181800Z 18004KT CAVOK 15/04 Q1017 =

Aeropuerto LA RIOJA

18 - 18:00 METAR SANL 181800Z 32005KT CAVOK 18/M02 Q1015 =

Aeropuerto MALARGUE

18 - 18:00 METAR SAMM 181800Z 23024G51KT 9999 FEW030TCU 08/M11 Q1016 =

Aeropuerto MAR DEL PLATA

18 - 18:00 METAR SAZM 181800Z 31018KT 9999 BKN026 12/09 Q1002 =

Aeropuerto MENDOZA

18 - 18:00 METAR SAME 181800Z 05004KT CAVOK 14/M06 Q1015 =

Aeropuerto MORON

18 - 18:00 METAR SADM 181800Z 32016KT 9999 SCT015 SCT022 OVC100 11/08 Q1009 =

Aeropuerto NEUQUEN

18 - 18:00 METAR SAZN 181800Z 23025G41KT CAVOK 14/02 Q1011 =

Aeropuerto PARANA

18 - 18:00 METAR SAAP 181800Z 23020KT CAVOK 16/07 Q1016 =

Aeropuerto POSADAS

18 - 18:00 METAR SARP 181800Z 25012KT 9999 FEW015 BKN080 23/18 Q1015 =

Aeropuerto PUERTO MADRYN

18 - 18:00 METAR SAVY 181800Z 16014KT 1500 DZ SCT010 SCT015 BKN035 10/10 Q1007 =

Aeropuerto RECONQUISTA

18 - 18:00 METAR SATR 181800Z 23005KT 8000 BKN008 OVC100 13/11 Q1016 =

Aeropuerto RESISTENCIA

18 - 18:00 METAR SARE 181800Z 22005KT 9999 SCT015 OVC039 14/13 Q1016 REDZ =

Aeropuerto RIO CUARTO

18 - 17:00 METAR SAOC 181700Z 27015G25KT CAVOK 16/M03 Q1014 =

Aeropuerto RIO GALLEGOS

18 - 18:00 METAR SAWG 181800Z 29002KT CAVOK 04/01 Q1006 =

Aeropuerto RIO GRANDE

18 - 18:00 METAR SAWE 181800Z 29007KT 9999 SCT020 OVC100 06/04 Q1002 =

Aeropuerto ROSARIO

18 - 18:00 METAR SAAR 181800Z 25019KT CAVOK 16/04 Q1013 =

Aeropuerto SALTA

18 - 18:00 METAR SASA 181800Z 36005KT CAVOK 15/M01 Q1018 =

Aeropuerto SAN FERNANDO

18 - 18:00 METAR SADF 181800Z 29013G23KT 270V330 9999 OVC015 12/08 Q1010 =

Aeropuerto SAN JUAN

18 - 18:00 METAR SANU 181800Z 36012KT CAVOK 15/M08 Q1016 =

Aeropuerto SAN LUIS

18 - 18:00 METAR SAOU 181800Z 23004KT CAVOK 15/M04 Q1016 RMK ESTIMATED WIND =

Aeropuerto SAN RAFAEL

18 - 18:00 METAR SAMR 181800Z 36010KT CAVOK 16/M04 Q1016 =

Aeropuerto SANTA ROSA

18 - 18:00 METAR SAZR 181800Z 25016G32KT CAVOK 13/03 Q1006 =

Aeropuerto SANTIAGO DEL ESTERO

18 - 18:00 METAR SANE 181800Z 20008KT CAVOK 18/M00 Q1017 =

Aeropuerto SAUCE VIEJO

18 - 18:00 METAR SAAV 181800Z 23010KT CAVOK 17/06 Q1015 =

Aeropuerto TANDIL

18 - 18:00 METAR SAZT 181800Z 32023KT 9999 OVC008 09/08 Q1001 =

Aeropuerto TERMAS DE RIO HONDO

18 - 18:00 METAR SANR 181800Z 23006KT CAVOK 16/03 Q1018 =

Aeropuerto TRELEW

18 - 18:00 METAR SAVT 181800Z 18015KT 8000 BKN020 SCT045 11/10 Q1009 REDZ =

Aeropuerto TUCUMAN

18 - 18:00 METAR SANT 181800Z 14004KT CAVOK 16/05 Q1018 =

Aeropuerto USHUAIA

18 - 18:00 METAR SAWH 181800Z 00000KT 9999 BKN050 OVC100 06/04 Q1000 =

Aeropuerto VIEDMA

18 - 18:00 METAR SAVV 181800Z 23004KT 0500 +DZ OVC005 13/12 Q0998 =

Aeropuerto VILLA REYNOLDS

18 - 18:00 METAR SAOR 181800Z 27024KT CAVOK 17/M05 Q1015 =

 

 PRONOSTICO DE AERODROMO (TAF) 17:00 UTC

 

Estación AEROPARQUE J. NEWBERY

18 - 17:00 TAF SABE 181700Z 1818/1918 31020G30KT 9999 OVC015 TX14/1918Z TN10/1910Z BECMG 1820/1822 28025G35KT BKN020 BECMG 1906/1909 27015G25KT 9999 SCT020 SCT030 BECMG 1913/1914 25015KT CAVOK =

Estación BAHIA BLANCA

18 - 17:00 TAF SAZB 181700Z 1818/1918 29010KT 2000 DZRA OVC003 TX12/1818Z TN09/1910Z PROB40 TEMPO 1819/1900 25015G30KT 1500 SHRA DZ BKN005 FEW040CB BKN020 BECMG 1900/1903 25030G40KT 5000 DZ BKN007 BKN020 BECMG 1909/1912 25015KT 9999 SCT020 SCT050 =

Estación BARILOCHE

18 - 17:00 TAF SAZS 181700Z 1818/1918 29025G35KT 9999 SCT030 SCT100 TX08/1818Z TN00/1911Z BECMG 1900/1903 29025G30KT 9999 BKN018 BECMG 1906/1908 29010KT SCT010 BKN012 BECMG 1914/1916 9999 BKN020 =

Estación CATAMARCA

18 - 17:00 TAF SANC 181700Z 1818/1918 22005KT CAVOK TX17/1918Z TN02/1911Z BECMG 1900/1903 02005KT =

Estación CHAPELCO

18 - 17:00 TAF SAZY 181700Z 1818/1918 27015G35KT 8000 SCT010 BKN020 TX07/1818Z TN01/1910Z BECMG 1900/1903 5000 BR OVC003 PROB30 1906/1912 2000 BRDZ OVC005 =

Estación COMODORO RIVADAVIA

18 - 17:00 TAF SAVC 181700Z 1818/1918 29010KT 9999 FEW020 BKN090 TX13/1819Z TN06/1912Z BECMG 1820/2822 23015G25KT BECMG 1904/1906 25015KT CAVOK =

Estación CORDOBA

18 - 17:00 TAF SACO 181700Z 1818/1918 12005KT CAVOK TX20/1918Z TN03/1910Z BECMG 1908/1911 VRB03KT 8000 NSC BECMG 1912/1915 32010KT CAVOK =

Estación CORRIENTES

18 - 17:00 TAF SARC 181700Z 1818/1918 23005KT 9999 BKN012 OVC100 TX16/1918Z TN12/1912Z TEMPO 1820/1903 7000 -RADZ OVC007 PROB30 1906/1912 3000 -DZBR BKN005 BECMG 1915/1917 CAVOK =

Estación EL CALAFATE

18 - 17:00 TAF SAWC 181700Z 1818/1918 14006KT 9999 SCT020 SCT080 TX07/1819Z TN01/1912Z BECMG 1820/1822 27010KT =

Estación EL PALOMAR

18 - 17:00 TAF SADP 181700Z 1818/1918 32015G25KT 9999 BKN020 OVC030 TX14/1918Z TN07/1910Z TEMPO 1818/1821 29015G35KT 9000 -DZ SCT010 BKN025 BECMG 1821/1900 CAVOK BECMG 1903/1906 9999 SCT008 BKN010 BECMG 1912/1915 CAVOK =

Estación ESQUEL

18 - 17:00 TAF SAVE 181700Z 1818/1918 27015G30KT 9999 SCT020 BKN060 TX09/1819Z TN01/1912Z BECMG 1819/1822 27012KT BKN020 BKN040 =

Estación EZEIZA

18 - 17:00 TAF SAEZ 181700Z 1818/1918 32015G25KT 9999 BKN020 OVC030 TX13/1918Z TN07/1910Z TEMPO 1818/1821 29015G35KT 9000 -DZ SCT010 BKN025 BECMG 1821/1900 CAVOK BECMG 1903/1906 9999 SCT008 BKN010 BECMG 1912/1915 CAVOK =

Estación FORMOSA

18 - 17:00 TAF SARF 181700Z 1818/1918 23005KT 9999 SCT004 OVC015 TX16/1917Z TN12/19110Z TEMPO 1819/1901 7000 -RADZ BECMG 1903/1905 3000 -DZBR BKN015 BKN070 =

Estación IGUAZU/CATARATAS

18 - 17:00 TAF SARI 181700Z 1818/1918 05005KT CAVOK TX19/1918Z TN15/1910Z BECMG 1906/1908 20005KT 3000 -RADZ BKN010 =

Estación JUJUY

18 - 17:00 TAF SASJ 181700Z 1818/1918 05010KT 9999 FEW005 BKN030 TX19/1918Z TN02/1911Z BECMG 1821/1900 30005KT 9999 SCT020 BECMG 1908/1910 5000 BR NSC BECMG 1912/1915 02005KT CAVOK =

Estación LA RIOJA

18 - 17:00 TAF SANL 181700Z 1818/1918 27005KT CAVOK TX18/1918Z TN00/1911Z =

Estación MAR DEL PLATA

18 - 17:00 TAF SAZM 181700Z 1818/1918 34020KT 9999 BKN020 BKN050 TX14/1818Z TN06/1910Z BECMG 1821/1900 34020G35KT 9999 BKN025 BKN050 BECMG 1902/1905 25025G45KT 7000 RADZ 0VC008 BECMG 1915/1918 23025G35KT 9999 BKN025 FEW035TCU =

Estación MENDOZA

18 - 17:00 TAF SAME 181700Z 1818/1918 05005KT CAVOK TX16/1820Z TN01/1911Z BECMG 1902/1904 20005KT =

Estación NEUQUEN

18 - 17:00 TAF SAZN 181700Z 1818/1918 25025G35KT 9999 SCT020 BKN100 TX13/1918Z TN04/1910Z PEOB30 TEMPO 1819/1822 6000 SHRA BKN030 FEW040TCU BKN045 BECMG 1822/1901 25020G30KT 9999 BKN020 BKN100 BECMG 1906/1908 27015KT BKN012 BECMG 1913/1914 26010KT CAVOK =

Estación PARANA

18 - 17:00 TAF SAAP 181700Z 1818/1918 25015KT SCT020 TX15/1818Z TN06/1910Z BECMG 1821/1900 25010G25KT CAVOK BECMG 1903/1906 27005KT =

Estación POSADAS

18 - 17:00 TAF SARP 181700Z 1818/1918 25010KT 9999 FEW015 TX19/1918Z TN15/1910Z BECMG 1820/1824 3000 -RADZ SCT005 OVC010 =

Estación RESISTENCIA

18 - 17:00 TAF SARE 181700Z 1818/1918 23010KT 9999 BKN017 OVC041 TX16/1918Z TN12/1912Z TEMPO 1819/1901 7000 -RADZ OVC007 PROB30 1906/1912 3000 BR BKN010 BECMG 1915/1917 CAVOK =

Estación RIO CUARTO

18 - 17:00 TAF SAOC 181700Z 1818/1918 27015G25KT CAVOK TX19/1918Z TN04/1911Z BECMG 1822/1900 25020KT BECMG 1906/1912 23015KT =

Estación RIO GALLEGOS

18 - 17:00 TAF SAWG 181700Z 1818/1918 VRB05KT 9999 FEW030 BKN080 TX08/1819Z TN01/1912Z BECMG 1819/1821 23015KT BECMG 1900/1902 27015KT =

Estación RIO GRANDE

18 - 17:00 TAF SAWE 181700Z 1818/1918 29015KT 9999 SCT030 BKN050 TX08/1819Z TN03/1912Z BECMG 1819/1821 25020G30KT BKN020 BKN090 BECMG 1906/1908 27025G40KT =

Estación ROSARIO

18 - 17:00 TAF SAAR 181700Z 1818/1918 24015KT CAVOK TX16/1918Z TN10/1910Z BECMG 1820/1822 30010KT BECMG 1913/1914 25010KT CAVOK =

Estación SALTA

18 - 17:00 TAF SASA 181700Z 1818/1918 29005KT 9999 FEW010 TX19/1918Z TN02/1911Z BECMG 1908/1910 5000 BR NSC BECMG 1912/1915 02005KT CAVOK =

Estación SAN FERNANDO

18 - 17:00 TAF SADF 181700Z 1818/1918 29015G25KT 9999 OVC015 TX14/1918Z TN07/1912Z BECMG 1820/1822 SCT020 BECMG 1902/1904 27015KT CAVOK BECMG 1915/1917 25015KT =

Estación SAN JUAN

18 - 17:00 TAF SANU 181700Z 1818/1918 36005KT CAVOK TX17/1820Z TN01/1911Z BECMG 1902/1904 20005KT =

Estación SAN LUIS

18 - 17:00 TAF SAOU 181700Z 1818/1918 36010KT CAVOK TX16/1819Z TN06/1910Z =

Estación SAN RAFAEL

18 - 17:00 TAF SAMR 181700Z 1818/1918 36005KT CAVOK TX15/1820Z TN03/1911Z BECMG 1902/1904 29005KT =

Estación SANTA ROSA

18 - 17:00 TAF SAZR 181700Z 1818/1918 25015G35KT CAVOK TX12/1818Z TN05/1910Z BECMG 1819/1821 8000 -RA BKN020 BECMG 1903/1906 25015G25KT CAVOK =

Estación SANTIAGO DEL ESTERO

18 - 17:00 TAF SANE 181700Z 1818/1918 18005KT CAVOK TX18/1918Z TN06/1911Z BECMG 1821/1900 18005KT CAVOK BECMG 1908/1911 5000 BR NSC

Estación SAUCE VIEJO

18 - 17:00 TAF SAAV 181700Z 1818/1918 25015KT SCT020 TX16/1818Z TN06/1910Z BECMG 1821/1900 25010G25KT CAVOK BECMG 1903/1906 27005KT =

Estación TERMAS DE RIO HONDO

18 - 17:00 TAF SANR 181700Z 1818/1918 18005KT CAVOK TX18/1918Z TN06/1911Z BECMG 1821/1900 18005KT CAVOK BECMG 1908/1911 5000 BR NSC =

Estación TRELEW

18 - 17:00 TAF SAVT 181700Z 1818/1918 21015G25KT 8000 SHRA BKN020 BKN070 TX12/1819Z TN04/1912Z BECMG 1822/1900 21025G35KT 9999 NSW BKN020 BKN030 BECMG 1904/1906 21015G25KT SCT030 SCT040 =

Estación TUCUMAN

18 - 17:00 TAF SANT 181700Z 1818/1918 27005KT 9999 FEW030 TX17/1918Z TN05/1911Z BECMG 1819/1821 14005KT BECMG 1908/1910 5000 BR NSC BECMG 1912/1915 02005KT CAVOK =

Estación USHUAIA

18 - 17:00 TAF SAWH 181700Z 1818/1918 VRB05KT 9999 FEW030 BKN080 TX07/1819Z TN02/1912Z BECMG 1902/1904 25020G30KT SCT030 BKN070 TEMPO 1914/1918 -SHRA BKN030 SCT060 =

Estación VIEDMA

18 - 17:00 TAF SAVV 181700Z 1818/1918 VRB07KT 4000 DZ BKN006 TX15/1819Z TN10/1912Z PROB30 TEMPO 1818/1821 1000 DZBR OVC005 BECMG 1820/1822 18020G35KT 3000 RA OVC015 PROB30 TEMPO 1823/1904 18030G45KT BECMG 1910/1912 23020G30KT 9999 SCT030 SCT040 =